sensor_id;sensor_type;location;lat;lon;timestamp;P1;durP1;ratioP1;P2;durP2;ratioP2
72201;SDS011;60105;54.956;73.412;2023-02-27T00:02:43;13.07;;;6.27;;
72201;SDS011;60105;54.956;73.412;2023-02-27T00:05:47;13.80;;;7.23;;
72201;SDS011;60105;54.956;73.412;2023-02-27T00:09:41;14.84;;;7.06;;
72201;SDS011;60105;54.956;73.412;2023-02-27T00:12:42;18.67;;;7.90;;
72201;SDS011;60105;54.956;73.412;2023-02-27T00:15:45;11.87;;;7.00;;
72201;SDS011;60105;54.956;73.412;2023-02-27T00:18:48;13.73;;;8.43;;
72201;SDS011;60105;54.956;73.412;2023-02-27T00:21:49;10.17;;;5.67;;
72201;SDS011;60105;54.956;73.412;2023-02-27T00:24:50;14.68;;;6.78;;
72201;SDS011;60105;54.956;73.412;2023-02-27T00:27:57;14.43;;;7.00;;
72201;SDS011;60105;54.956;73.412;2023-02-27T00:31:03;14.93;;;6.73;;
72201;SDS011;60105;54.956;73.412;2023-02-27T00:34:41;11.23;;;5.85;;
72201;SDS011;60105;54.956;73.412;2023-02-27T00:37:44;14.80;;;7.03;;
72201;SDS011;60105;54.956;73.412;2023-02-27T00:40:46;13.27;;;7.28;;
72201;SDS011;60105;54.956;73.412;2023-02-27T00:43:47;10.90;;;6.30;;
72201;SDS011;60105;54.956;73.412;2023-02-27T00:46:48;12.95;;;7.05;;
72201;SDS011;60105;54.956;73.412;2023-02-27T00:49:59;14.85;;;7.63;;
72201;SDS011;60105;54.956;73.412;2023-02-27T00:53:01;14.85;;;7.55;;
72201;SDS011;60105;54.956;73.412;2023-02-27T00:56:03;15.77;;;7.03;;
72201;SDS011;60105;54.956;73.412;2023-02-27T00:59:41;12.15;;;7.22;;
72201;SDS011;60105;54.956;73.412;2023-02-27T01:02:42;14.10;;;7.30;;
72201;SDS011;60105;54.956;73.412;2023-02-27T01:05:54;12.67;;;7.40;;
72201;SDS011;60105;54.956;73.412;2023-02-27T01:08:56;11.80;;;6.20;;
72201;SDS011;60105;54.956;73.412;2023-02-27T01:11:58;14.37;;;5.93;;
72201;SDS011;60105;54.956;73.412;2023-02-27T01:15:09;12.65;;;7.03;;
72201;SDS011;60105;54.956;73.412;2023-02-27T01:18:11;17.67;;;8.55;;
72201;SDS011;60105;54.956;73.412;2023-02-27T01:21:12;19.73;;;9.67;;
72201;SDS011;60105;54.956;73.412;2023-02-27T01:24:19;21.07;;;11.87;;
72201;SDS011;60105;54.956;73.412;2023-02-27T01:27:22;21.05;;;10.90;;
72201;SDS011;60105;54.956;73.412;2023-02-27T01:30:23;14.88;;;8.75;;
72201;SDS011;60105;54.956;73.412;2023-02-27T01:33:24;16.67;;;9.00;;
72201;SDS011;60105;54.956;73.412;2023-02-27T01:36:25;17.23;;;7.17;;
72201;SDS011;60105;54.956;73.412;2023-02-27T01:42:52;11.98;;;6.57;;
72201;SDS011;60105;54.956;73.412;2023-02-27T01:45:54;15.10;;;7.20;;
72201;SDS011;60105;54.956;73.412;2023-02-27T01:48:56;14.73;;;6.90;;
72201;SDS011;60105;54.956;73.412;2023-02-27T01:52:21;11.35;;;6.13;;
72201;SDS011;60105;54.956;73.412;2023-02-27T01:55:25;12.63;;;5.43;;
72201;SDS011;60105;54.956;73.412;2023-02-27T01:58:39;13.65;;;7.95;;
72201;SDS011;60105;54.956;73.412;2023-02-27T02:01:43;15.63;;;6.67;;
72201;SDS011;60105;54.956;73.412;2023-02-27T02:04:45;10.20;;;7.50;;
72201;SDS011;60105;54.956;73.412;2023-02-27T02:07:48;12.75;;;6.82;;
72201;SDS011;60105;54.956;73.412;2023-02-27T02:11:00;13.10;;;6.67;;
72201;SDS011;60105;54.956;73.412;2023-02-27T02:14:41;13.30;;;6.25;;
72201;SDS011;60105;54.956;73.412;2023-02-27T02:51:42;15.40;;;6.75;;
72201;SDS011;60105;54.956;73.412;2023-02-27T03:02:07;12.53;;;6.23;;
72201;SDS011;60105;54.956;73.412;2023-02-27T03:05:17;12.27;;;5.93;;
72201;SDS011;60105;54.956;73.412;2023-02-27T03:08:28;13.93;;;7.10;;
72201;SDS011;60105;54.956;73.412;2023-02-27T03:11:35;14.40;;;9.17;;
72201;SDS011;60105;54.956;73.412;2023-02-27T03:18:23;17.17;;;7.07;;
72201;SDS011;60105;54.956;73.412;2023-02-27T03:21:33;20.43;;;8.20;;
72201;SDS011;60105;54.956;73.412;2023-02-27T03:24:46;24.53;;;8.97;;
72201;SDS011;60105;54.956;73.412;2023-02-27T03:27:59;14.43;;;7.43;;
72201;SDS011;60105;54.956;73.412;2023-02-27T03:31:08;15.47;;;8.27;;
72201;SDS011;60105;54.956;73.412;2023-02-27T03:34:41;7.07;;;4.28;;
72201;SDS011;60105;54.956;73.412;2023-02-27T03:41:08;16.20;;;8.20;;
72201;SDS011;60105;54.956;73.412;2023-02-27T03:47:58;12.02;;;7.20;;
72201;SDS011;60105;54.956;73.412;2023-02-27T03:51:06;11.20;;;6.95;;
72201;SDS011;60105;54.956;73.412;2023-02-27T03:54:19;11.02;;;6.50;;
72201;SDS011;60105;54.956;73.412;2023-02-27T03:57:26;13.80;;;7.57;;
72201;SDS011;60105;54.956;73.412;2023-02-27T04:00:29;14.10;;;7.55;;
72201;SDS011;60105;54.956;73.412;2023-02-27T04:03:42;15.45;;;7.43;;
72201;SDS011;60105;54.956;73.412;2023-02-27T04:07:02;14.35;;;7.65;;
72201;SDS011;60105;54.956;73.412;2023-02-27T04:10:44;14.60;;;7.83;;
72201;SDS011;60105;54.956;73.412;2023-02-27T04:17:21;11.90;;;6.73;;
72201;SDS011;60105;54.956;73.412;2023-02-27T04:20:35;10.83;;;7.17;;
72201;SDS011;60105;54.956;73.412;2023-02-27T04:40:27;20.80;;;10.13;;
72201;SDS011;60105;54.956;73.412;2023-02-27T04:43:34;28.83;;;11.45;;
72201;SDS011;60105;54.956;73.412;2023-02-27T04:46:39;26.90;;;11.30;;
72201;SDS011;60105;54.956;73.412;2023-02-27T04:49:45;13.90;;;8.20;;
72201;SDS011;60105;54.956;73.412;2023-02-27T04:52:56;18.80;;;9.55;;
72201;SDS011;60105;54.956;73.412;2023-02-27T04:56:03;22.43;;;9.97;;
72201;SDS011;60105;54.956;73.412;2023-02-27T04:59:44;15.98;;;9.30;;
72201;SDS011;60105;54.956;73.412;2023-02-27T05:03:00;21.23;;;11.20;;
72201;SDS011;60105;54.956;73.412;2023-02-27T05:06:16;16.50;;;8.57;;
72201;SDS011;60105;54.956;73.412;2023-02-27T05:32:52;14.70;;;8.87;;
72201;SDS011;60105;54.956;73.412;2023-02-27T05:36:12;21.47;;;9.97;;
72201;SDS011;60105;54.956;73.412;2023-02-27T05:43:13;13.85;;;7.75;;
72201;SDS011;60105;54.956;73.412;2023-02-27T05:46:19;17.60;;;8.23;;
72201;SDS011;60105;54.956;73.412;2023-02-27T05:49:49;16.40;;;8.10;;
72201;SDS011;60105;54.956;73.412;2023-02-27T05:53:06;15.03;;;6.70;;
72201;SDS011;60105;54.956;73.412;2023-02-27T05:56:11;17.85;;;9.50;;
72201;SDS011;60105;54.956;73.412;2023-02-27T06:02:49;16.13;;;7.53;;
72201;SDS011;60105;54.956;73.412;2023-02-27T06:06:02;14.27;;;7.47;;
72201;SDS011;60105;54.956;73.412;2023-02-27T06:09:41;15.65;;;8.88;;
72201;SDS011;60105;54.956;73.412;2023-02-27T06:12:54;22.98;;;12.45;;
72201;SDS011;60105;54.956;73.412;2023-02-27T06:16:00;19.93;;;11.93;;
72201;SDS011;60105;54.956;73.412;2023-02-27T06:19:41;16.23;;;9.07;;
72201;SDS011;60105;54.956;73.412;2023-02-27T06:22:47;21.42;;;10.63;;
72201;SDS011;60105;54.956;73.412;2023-02-27T06:25:49;16.77;;;8.47;;
72201;SDS011;60105;54.956;73.412;2023-02-27T06:28:54;14.88;;;7.32;;
72201;SDS011;60105;54.956;73.412;2023-02-27T06:31:55;11.23;;;7.20;;
72201;SDS011;60105;54.956;73.412;2023-02-27T06:34:57;14.47;;;8.57;;
72201;SDS011;60105;54.956;73.412;2023-02-27T06:37:58;15.17;;;8.53;;
72201;SDS011;60105;54.956;73.412;2023-02-27T06:40:59;16.13;;;7.85;;
72201;SDS011;60105;54.956;73.412;2023-02-27T06:44:41;16.50;;;8.45;;
72201;SDS011;60105;54.956;73.412;2023-02-27T06:47:42;13.67;;;8.27;;
72201;SDS011;60105;54.956;73.412;2023-02-27T06:50:54;14.85;;;7.80;;
72201;SDS011;60105;54.956;73.412;2023-02-27T06:54:09;12.90;;;6.60;;
72201;SDS011;60105;54.956;73.412;2023-02-27T06:57:10;14.67;;;7.50;;
72201;SDS011;60105;54.956;73.412;2023-02-27T07:00:12;11.40;;;6.63;;
72201;SDS011;60105;54.956;73.412;2023-02-27T07:03:14;8.38;;;5.85;;
72201;SDS011;60105;54.956;73.412;2023-02-27T07:06:16;12.27;;;6.68;;
72201;SDS011;60105;54.956;73.412;2023-02-27T07:12:47;9.98;;;6.05;;
72201;SDS011;60105;54.956;73.412;2023-02-27T07:15:49;8.40;;;6.03;;
72201;SDS011;60105;54.956;73.412;2023-02-27T07:19:41;11.26;;;6.47;;
72201;SDS011;60105;54.956;73.412;2023-02-27T07:22:47;12.05;;;6.97;;
72201;SDS011;60105;54.956;73.412;2023-02-27T07:25:54;13.15;;;6.97;;
72201;SDS011;60105;54.956;73.412;2023-02-27T07:29:41;10.90;;;7.20;;
72201;SDS011;60105;54.956;73.412;2023-02-27T07:32:47;11.02;;;6.75;;
72201;SDS011;60105;54.956;73.412;2023-02-27T07:35:48;11.50;;;6.85;;
72201;SDS011;60105;54.956;73.412;2023-02-27T07:38:50;12.57;;;6.77;;
72201;SDS011;60105;54.956;73.412;2023-02-27T07:41:51;11.10;;;5.70;;
72201;SDS011;60105;54.956;73.412;2023-02-27T07:44:52;8.75;;;5.25;;
72201;SDS011;60105;54.956;73.412;2023-02-27T07:47:59;8.77;;;5.18;;
72201;SDS011;60105;54.956;73.412;2023-02-27T07:51:00;7.37;;;5.20;;
72201;SDS011;60105;54.956;73.412;2023-02-27T07:54:09;10.23;;;5.43;;
72201;SDS011;60105;54.956;73.412;2023-02-27T07:57:10;11.57;;;5.45;;
72201;SDS011;60105;54.956;73.412;2023-02-27T08:00:12;9.53;;;5.90;;
72201;SDS011;60105;54.956;73.412;2023-02-27T08:03:14;9.32;;;5.25;;
72201;SDS011;60105;54.956;73.412;2023-02-27T08:06:21;10.15;;;5.60;;
72201;SDS011;60105;54.956;73.412;2023-02-27T08:12:47;12.37;;;5.57;;
72201;SDS011;60105;54.956;73.412;2023-02-27T08:15:53;6.32;;;4.32;;
72201;SDS011;60105;54.956;73.412;2023-02-27T08:18:55;10.75;;;5.72;;
72201;SDS011;60105;54.956;73.412;2023-02-27T08:22:01;9.60;;;5.65;;
72201;SDS011;60105;54.956;73.412;2023-02-27T08:25:04;10.90;;;5.38;;
72201;SDS011;60105;54.956;73.412;2023-02-27T08:28:07;6.80;;;5.10;;
72201;SDS011;60105;54.956;73.412;2023-02-27T08:31:08;8.73;;;5.68;;
72201;SDS011;60105;54.956;73.412;2023-02-27T08:34:41;11.27;;;6.20;;
72201;SDS011;60105;54.956;73.412;2023-02-27T08:37:42;15.68;;;6.57;;
72201;SDS011;60105;54.956;73.412;2023-02-27T08:40:49;7.77;;;5.27;;
72201;SDS011;60105;54.956;73.412;2023-02-27T08:43:53;7.57;;;5.22;;
72201;SDS011;60105;54.956;73.412;2023-02-27T08:47:04;10.27;;;5.82;;
72201;SDS011;60105;54.956;73.412;2023-02-27T08:50:05;14.63;;;6.57;;
72201;SDS011;60105;54.956;73.412;2023-02-27T08:53:07;10.50;;;5.57;;
72201;SDS011;60105;54.956;73.412;2023-02-27T08:56:09;10.13;;;6.33;;
72201;SDS011;60105;54.956;73.412;2023-02-27T09:02:52;10.75;;;6.13;;
72201;SDS011;60105;54.956;73.412;2023-02-27T09:05:53;14.50;;;6.53;;
72201;SDS011;60105;54.956;73.412;2023-02-27T09:09:41;10.76;;;5.84;;
72201;SDS011;60105;54.956;73.412;2023-02-27T09:12:42;15.27;;;7.70;;
72201;SDS011;60105;54.956;73.412;2023-02-27T09:15:45;16.20;;;7.80;;
72201;SDS011;60105;54.956;73.412;2023-02-27T09:18:47;15.88;;;7.18;;
72201;SDS011;60105;54.956;73.412;2023-02-27T09:21:49;19.67;;;6.43;;
72201;SDS011;60105;54.956;73.412;2023-02-27T09:24:50;10.93;;;5.53;;
72201;SDS011;60105;54.956;73.412;2023-02-27T09:27:57;13.10;;;6.63;;
72201;SDS011;60105;54.956;73.412;2023-02-27T09:31:05;8.45;;;5.43;;
72201;SDS011;60105;54.956;73.412;2023-02-27T09:34:41;17.08;;;6.03;;
72201;SDS011;60105;54.956;73.412;2023-02-27T09:37:42;14.00;;;6.50;;
72201;SDS011;60105;54.956;73.412;2023-02-27T09:40:43;10.00;;;5.63;;
72201;SDS011;60105;54.956;73.412;2023-02-27T09:44:45;8.64;;;5.00;;
72201;SDS011;60105;54.956;73.412;2023-02-27T09:47:53;9.65;;;5.97;;
72201;SDS011;60105;54.956;73.412;2023-02-27T09:51:07;10.13;;;6.07;;
72201;SDS011;60105;54.956;73.412;2023-02-27T09:54:09;12.35;;;5.35;;
72201;SDS011;60105;54.956;73.412;2023-02-27T09:57:14;10.93;;;5.80;;
72201;SDS011;60105;54.956;73.412;2023-02-27T10:17:49;9.43;;;5.93;;
72201;SDS011;60105;54.956;73.412;2023-02-27T10:24:28;7.15;;;4.47;;
72201;SDS011;60105;54.956;73.412;2023-02-27T10:27:31;8.47;;;5.73;;
72201;SDS011;60105;54.956;73.412;2023-02-27T10:30:34;11.65;;;7.05;;
72201;SDS011;60105;54.956;73.412;2023-02-27T10:33:45;10.32;;;5.70;;
72201;SDS011;60105;54.956;73.412;2023-02-27T10:36:50;8.80;;;5.60;;
72201;SDS011;60105;54.956;73.412;2023-02-27T10:40:03;9.70;;;5.47;;
72201;SDS011;60105;54.956;73.412;2023-02-27T10:43:06;12.20;;;5.63;;
72201;SDS011;60105;54.956;73.412;2023-02-27T10:46:18;8.75;;;5.18;;
72201;SDS011;60105;54.956;73.412;2023-02-27T10:52:49;8.10;;;4.57;;
72201;SDS011;60105;54.956;73.412;2023-02-27T10:56:03;9.38;;;5.50;;
72201;SDS011;60105;54.956;73.412;2023-02-27T11:02:52;8.15;;;5.70;;
72201;SDS011;60105;54.956;73.412;2023-02-27T11:06:01;10.27;;;6.67;;
72201;SDS011;60105;54.956;73.412;2023-02-27T11:09:41;15.35;;;5.90;;
72201;SDS011;60105;54.956;73.412;2023-02-27T11:16:21;11.52;;;6.07;;
72201;SDS011;60105;54.956;73.412;2023-02-27T11:22:42;11.83;;;6.33;;
72201;SDS011;60105;54.956;73.412;2023-02-27T11:25:43;11.20;;;5.53;;
72201;SDS011;60105;54.956;73.412;2023-02-27T11:28:44;11.07;;;6.20;;
72201;SDS011;60105;54.956;73.412;2023-02-27T11:35:18;13.90;;;6.00;;
72201;SDS011;60105;54.956;73.412;2023-02-27T11:38:31;8.98;;;6.05;;
72201;SDS011;60105;54.956;73.412;2023-02-27T11:41:34;9.93;;;5.93;;
72201;SDS011;60105;54.956;73.412;2023-02-27T11:47:51;9.07;;;5.93;;
72201;SDS011;60105;54.956;73.412;2023-02-27T11:51:01;8.27;;;5.75;;
72201;SDS011;60105;54.956;73.412;2023-02-27T11:54:17;12.95;;;5.95;;
72201;SDS011;60105;54.956;73.412;2023-02-27T12:00:32;12.55;;;6.10;;
72201;SDS011;60105;54.956;73.412;2023-02-27T12:03:46;11.67;;;5.23;;
72201;SDS011;60105;54.956;73.412;2023-02-27T12:07:06;9.35;;;5.60;;
72201;SDS011;60105;54.956;73.412;2023-02-27T12:10:29;7.90;;;5.50;;
72201;SDS011;60105;54.956;73.412;2023-02-27T12:13:45;10.88;;;6.43;;
72201;SDS011;60105;54.956;73.412;2023-02-27T12:17:04;9.73;;;5.03;;
72201;SDS011;60105;54.956;73.412;2023-02-27T12:20:27;12.25;;;6.45;;
72201;SDS011;60105;54.956;73.412;2023-02-27T12:26:44;9.40;;;5.87;;
72201;SDS011;60105;54.956;73.412;2023-02-27T12:29:48;8.70;;;4.43;;
72201;SDS011;60105;54.956;73.412;2023-02-27T12:36:25;13.47;;;5.57;;
72201;SDS011;60105;54.956;73.412;2023-02-27T12:39:41;12.90;;;5.60;;
72201;SDS011;60105;54.956;73.412;2023-02-27T13:03:23;8.80;;;4.78;;
72201;SDS011;60105;54.956;73.412;2023-02-27T13:07:00;12.02;;;6.50;;
72201;SDS011;60105;54.956;73.412;2023-02-27T13:13:46;10.53;;;5.73;;
72201;SDS011;60105;54.956;73.412;2023-02-27T13:16:59;13.13;;;5.82;;
72201;SDS011;60105;54.956;73.412;2023-02-27T13:20:29;10.50;;;5.63;;
72201;SDS011;60105;54.956;73.412;2023-02-27T13:27:21;15.47;;;6.50;;
72201;SDS011;60105;54.956;73.412;2023-02-27T13:30:35;10.73;;;6.23;;
72201;SDS011;60105;54.956;73.412;2023-02-27T13:33:44;14.13;;;6.40;;
72201;SDS011;60105;54.956;73.412;2023-02-27T13:37:03;10.75;;;5.43;;
72201;SDS011;60105;54.956;73.412;2023-02-27T13:40:25;12.07;;;6.73;;
72201;SDS011;60105;54.956;73.412;2023-02-27T13:43:38;10.48;;;6.00;;
72201;SDS011;60105;54.956;73.412;2023-02-27T13:46:49;12.13;;;6.30;;
72201;SDS011;60105;54.956;73.412;2023-02-27T13:49:59;10.63;;;6.63;;
72201;SDS011;60105;54.956;73.412;2023-02-27T13:53:09;12.50;;;6.55;;
72201;SDS011;60105;54.956;73.412;2023-02-27T13:56:21;13.87;;;6.83;;
72201;SDS011;60105;54.956;73.412;2023-02-27T14:02:54;12.27;;;6.57;;
72201;SDS011;60105;54.956;73.412;2023-02-27T14:06:07;10.97;;;5.87;;
72201;SDS011;60105;54.956;73.412;2023-02-27T14:09:41;12.85;;;5.38;;
72201;SDS011;60105;54.956;73.412;2023-02-27T14:12:45;10.40;;;5.47;;
72201;SDS011;60105;54.956;73.412;2023-02-27T14:15:49;9.02;;;5.13;;
72201;SDS011;60105;54.956;73.412;2023-02-27T14:18:54;9.35;;;5.10;;
72201;SDS011;60105;54.956;73.412;2023-02-27T14:31:31;8.30;;;5.10;;
72201;SDS011;60105;54.956;73.412;2023-02-27T14:34:41;12.30;;;7.80;;
72201;SDS011;60105;54.956;73.412;2023-02-27T14:37:42;9.93;;;5.72;;
72201;SDS011;60105;54.956;73.412;2023-02-27T14:40:56;10.83;;;5.40;;
72201;SDS011;60105;54.956;73.412;2023-02-27T14:44:44;11.27;;;5.15;;
72201;SDS011;60105;54.956;73.412;2023-02-27T14:47:48;14.13;;;6.30;;
72201;SDS011;60105;54.956;73.412;2023-02-27T14:50:51;11.20;;;6.20;;
72201;SDS011;60105;54.956;73.412;2023-02-27T14:54:12;11.98;;;6.70;;
72201;SDS011;60105;54.956;73.412;2023-02-27T14:57:24;10.93;;;6.32;;
72201;SDS011;60105;54.956;73.412;2023-02-27T15:00:41;10.25;;;5.63;;
72201;SDS011;60105;54.956;73.412;2023-02-27T15:03:51;8.70;;;5.47;;
72201;SDS011;60105;54.956;73.412;2023-02-27T15:06:54;11.43;;;5.57;;
72201;SDS011;60105;54.956;73.412;2023-02-27T15:10:01;8.37;;;5.27;;
72201;SDS011;60105;54.956;73.412;2023-02-27T15:13:14;12.65;;;5.38;;
72201;SDS011;60105;54.956;73.412;2023-02-27T15:16:41;8.97;;;6.00;;
72201;SDS011;60105;54.956;73.412;2023-02-27T15:19:52;9.57;;;4.90;;
72201;SDS011;60105;54.956;73.412;2023-02-27T15:22:57;10.50;;;5.43;;
72201;SDS011;60105;54.956;73.412;2023-02-27T15:26:01;9.63;;;6.23;;
72201;SDS011;60105;54.956;73.412;2023-02-27T15:30:01;9.57;;;5.72;;
72201;SDS011;60105;54.956;73.412;2023-02-27T15:33:04;15.40;;;6.57;;
72201;SDS011;60105;54.956;73.412;2023-02-27T15:36:30;11.17;;;6.13;;
72201;SDS011;60105;54.956;73.412;2023-02-27T15:42:42;12.27;;;5.82;;
72201;SDS011;60105;54.956;73.412;2023-02-27T15:45:44;7.90;;;4.95;;
72201;SDS011;60105;54.956;73.412;2023-02-27T15:48:47;9.95;;;4.60;;
72201;SDS011;60105;54.956;73.412;2023-02-27T15:52:00;8.20;;;4.82;;
72201;SDS011;60105;54.956;73.412;2023-02-27T15:55:09;8.68;;;4.95;;
72201;SDS011;60105;54.956;73.412;2023-02-27T15:58:29;9.73;;;5.60;;
72201;SDS011;60105;54.956;73.412;2023-02-27T16:01:33;9.27;;;5.37;;
72201;SDS011;60105;54.956;73.412;2023-02-27T16:07:45;8.02;;;4.07;;
72201;SDS011;60105;54.956;73.412;2023-02-27T16:10:47;8.93;;;5.18;;
72201;SDS011;60105;54.956;73.412;2023-02-27T16:13:50;8.53;;;4.87;;
72201;SDS011;60105;54.956;73.412;2023-02-27T16:16:53;9.52;;;5.68;;
72201;SDS011;60105;54.956;73.412;2023-02-27T16:19:56;7.57;;;4.78;;
72201;SDS011;60105;54.956;73.412;2023-02-27T16:23:00;10.30;;;5.57;;
72201;SDS011;60105;54.956;73.412;2023-02-27T16:32:44;9.32;;;5.00;;
72201;SDS011;60105;54.956;73.412;2023-02-27T16:36:01;12.13;;;5.63;;
72201;SDS011;60105;54.956;73.412;2023-02-27T16:39:40;7.40;;;4.28;;
72201;SDS011;60105;54.956;73.412;2023-02-27T16:42:42;13.70;;;5.72;;
72201;SDS011;60105;54.956;73.412;2023-02-27T16:45:54;10.67;;;5.93;;
72201;SDS011;60105;54.956;73.412;2023-02-27T16:48:56;12.23;;;6.78;;
72201;SDS011;60105;54.956;73.412;2023-02-27T16:52:01;15.13;;;6.37;;
72201;SDS011;60105;54.956;73.412;2023-02-27T16:55:03;8.77;;;4.20;;
72201;SDS011;60105;54.956;73.412;2023-02-27T16:58:15;8.02;;;5.30;;
72201;SDS011;60105;54.956;73.412;2023-02-27T17:01:17;10.50;;;5.03;;
72201;SDS011;60105;54.956;73.412;2023-02-27T17:07:47;9.35;;;5.55;;
72201;SDS011;60105;54.956;73.412;2023-02-27T17:10:48;10.02;;;5.22;;
72201;SDS011;60105;54.956;73.412;2023-02-27T17:14:40;6.66;;;4.59;;
72201;SDS011;60105;54.956;73.412;2023-02-27T17:17:52;10.35;;;4.90;;
72201;SDS011;60105;54.956;73.412;2023-02-27T17:21:03;9.57;;;4.70;;
72201;SDS011;60105;54.956;73.412;2023-02-27T17:24:09;7.50;;;4.72;;
72201;SDS011;60105;54.956;73.412;2023-02-27T17:27:10;10.85;;;5.20;;
72201;SDS011;60105;54.956;73.412;2023-02-27T17:30:12;10.37;;;4.50;;
72201;SDS011;60105;54.956;73.412;2023-02-27T17:33:24;9.63;;;4.45;;
72201;SDS011;60105;54.956;73.412;2023-02-27T17:36:26;7.33;;;4.03;;
72201;SDS011;60105;54.956;73.412;2023-02-27T17:42:41;9.40;;;4.43;;
72201;SDS011;60105;54.956;73.412;2023-02-27T17:45:47;8.07;;;5.40;;
72201;SDS011;60105;54.956;73.412;2023-02-27T17:48:48;10.32;;;5.43;;
72201;SDS011;60105;54.956;73.412;2023-02-27T17:51:49;11.40;;;5.70;;
72201;SDS011;60105;54.956;73.412;2023-02-27T17:54:51;9.75;;;5.38;;
72201;SDS011;60105;54.956;73.412;2023-02-27T17:57:57;5.97;;;4.37;;
72201;SDS011;60105;54.956;73.412;2023-02-27T18:04:40;8.50;;;4.35;;
72201;SDS011;60105;54.956;73.412;2023-02-27T18:07:42;8.50;;;4.73;;
72201;SDS011;60105;54.956;73.412;2023-02-27T18:10:46;7.50;;;5.30;;
72201;SDS011;60105;54.956;73.412;2023-02-27T18:13:49;10.63;;;4.55;;
72201;SDS011;60105;54.956;73.412;2023-02-27T18:16:50;10.95;;;4.68;;
72201;SDS011;60105;54.956;73.412;2023-02-27T18:19:51;10.77;;;4.63;;
72201;SDS011;60105;54.956;73.412;2023-02-27T18:22:53;8.87;;;4.83;;
72201;SDS011;60105;54.956;73.412;2023-02-27T18:25:54;5.87;;;3.83;;
72201;SDS011;60105;54.956;73.412;2023-02-27T18:29:40;8.18;;;4.45;;
72201;SDS011;60105;54.956;73.412;2023-02-27T18:32:43;12.15;;;5.53;;
72201;SDS011;60105;54.956;73.412;2023-02-27T18:35:44;10.95;;;4.82;;
72201;SDS011;60105;54.956;73.412;2023-02-27T18:39:40;9.42;;;4.59;;
72201;SDS011;60105;54.956;73.412;2023-02-27T18:42:42;7.47;;;4.38;;
72201;SDS011;60105;54.956;73.412;2023-02-27T18:45:47;9.17;;;4.53;;
72201;SDS011;60105;54.956;73.412;2023-02-27T18:48:48;7.32;;;4.65;;
72201;SDS011;60105;54.956;73.412;2023-02-27T18:51:56;9.10;;;5.50;;
72201;SDS011;60105;54.956;73.412;2023-02-27T18:54:57;7.73;;;4.40;;
72201;SDS011;60105;54.956;73.412;2023-02-27T18:57:58;7.18;;;4.03;;
72201;SDS011;60105;54.956;73.412;2023-02-27T19:01:00;10.10;;;4.87;;
72201;SDS011;60105;54.956;73.412;2023-02-27T19:04:39;8.48;;;5.50;;
72201;SDS011;60105;54.956;73.412;2023-02-27T19:07:51;7.77;;;4.47;;
72201;SDS011;60105;54.956;73.412;2023-02-27T19:10:52;7.97;;;5.35;;
72201;SDS011;60105;54.956;73.412;2023-02-27T19:14:40;7.35;;;4.65;;
72201;SDS011;60105;54.956;73.412;2023-02-27T19:17:42;10.95;;;5.72;;
72201;SDS011;60105;54.956;73.412;2023-02-27T19:20:53;8.45;;;4.80;;
72201;SDS011;60105;54.956;73.412;2023-02-27T19:23:54;8.40;;;4.03;;
72201;SDS011;60105;54.956;73.412;2023-02-27T19:26:56;8.20;;;5.05;;
72201;SDS011;60105;54.956;73.412;2023-02-27T19:29:57;9.73;;;4.53;;
72201;SDS011;60105;54.956;73.412;2023-02-27T19:33:01;9.43;;;5.30;;
72201;SDS011;60105;54.956;73.412;2023-02-27T19:36:09;12.47;;;4.83;;
72201;SDS011;60105;54.956;73.412;2023-02-27T19:39:40;13.13;;;5.25;;
72201;SDS011;60105;54.956;73.412;2023-02-27T19:42:41;7.88;;;4.65;;
72201;SDS011;60105;54.956;73.412;2023-02-27T19:45:44;9.07;;;5.47;;
72201;SDS011;60105;54.956;73.412;2023-02-27T19:48:45;10.40;;;5.32;;
72201;SDS011;60105;54.956;73.412;2023-02-27T19:51:46;7.50;;;4.47;;
72201;SDS011;60105;54.956;73.412;2023-02-27T19:54:48;8.67;;;5.10;;
72201;SDS011;60105;54.956;73.412;2023-02-27T19:57:54;7.28;;;4.35;;
72201;SDS011;60105;54.956;73.412;2023-02-27T20:00:55;9.57;;;4.83;;
72201;SDS011;60105;54.956;73.412;2023-02-27T20:04:40;8.01;;;4.90;;
72201;SDS011;60105;54.956;73.412;2023-02-27T20:07:44;10.03;;;5.50;;
72201;SDS011;60105;54.956;73.412;2023-02-27T20:10:54;8.57;;;4.50;;
72201;SDS011;60105;54.956;73.412;2023-02-27T20:14:40;6.70;;;4.25;;
72201;SDS011;60105;54.956;73.412;2023-02-27T20:17:41;9.43;;;5.33;;
72201;SDS011;60105;54.956;73.412;2023-02-27T20:20:43;7.80;;;5.05;;
72201;SDS011;60105;54.956;73.412;2023-02-27T20:23:50;10.20;;;5.65;;
72201;SDS011;60105;54.956;73.412;2023-02-27T20:26:51;8.83;;;4.73;;
72201;SDS011;60105;54.956;73.412;2023-02-27T20:29:54;11.10;;;5.50;;
72201;SDS011;60105;54.956;73.412;2023-02-27T20:32:56;7.57;;;4.18;;
72201;SDS011;60105;54.956;73.412;2023-02-27T20:36:01;7.35;;;4.35;;
72201;SDS011;60105;54.956;73.412;2023-02-27T20:39:40;7.45;;;4.78;;
72201;SDS011;60105;54.956;73.412;2023-02-27T20:42:44;9.77;;;5.43;;
72201;SDS011;60105;54.956;73.412;2023-02-27T20:45:56;10.53;;;4.93;;
72201;SDS011;60105;54.956;73.412;2023-02-27T20:49:40;9.39;;;5.11;;
72201;SDS011;60105;54.956;73.412;2023-02-27T20:52:41;9.05;;;5.05;;
72201;SDS011;60105;54.956;73.412;2023-02-27T20:55:46;11.10;;;4.95;;
72201;SDS011;60105;54.956;73.412;2023-02-27T20:58:54;11.40;;;5.82;;
72201;SDS011;60105;54.956;73.412;2023-02-27T21:01:55;9.95;;;5.43;;
72201;SDS011;60105;54.956;73.412;2023-02-27T21:04:56;7.90;;;4.67;;
72201;SDS011;60105;54.956;73.412;2023-02-27T21:08:02;6.97;;;5.18;;
72201;SDS011;60105;54.956;73.412;2023-02-27T21:11:17;7.38;;;5.60;;
72201;SDS011;60105;54.956;73.412;2023-02-27T21:17:43;6.82;;;3.83;;
72201;SDS011;60105;54.956;73.412;2023-02-27T21:20:54;7.63;;;4.47;;
72201;SDS011;60105;54.956;73.412;2023-02-27T21:24:09;12.09;;;5.46;;
72201;SDS011;60105;54.956;73.412;2023-02-27T21:27:10;15.05;;;5.35;;
72201;SDS011;60105;54.956;73.412;2023-02-27T21:30:11;10.77;;;5.53;;
72201;SDS011;60105;54.956;73.412;2023-02-27T21:33:12;8.10;;;5.57;;
72201;SDS011;60105;54.956;73.412;2023-02-27T21:36:23;9.73;;;4.50;;
72201;SDS011;60105;54.956;73.412;2023-02-27T21:42:41;8.05;;;4.82;;
72201;SDS011;60105;54.956;73.412;2023-02-27T21:45:43;8.73;;;4.40;;
72201;SDS011;60105;54.956;73.412;2023-02-27T21:49:40;7.26;;;4.56;;
72201;SDS011;60105;54.956;73.412;2023-02-27T21:52:42;17.42;;;5.97;;
72201;SDS011;60105;54.956;73.412;2023-02-27T21:55:54;9.88;;;5.55;;
72201;SDS011;60105;54.956;73.412;2023-02-27T21:59:40;8.75;;;6.03;;
72201;SDS011;60105;54.956;73.412;2023-02-27T22:02:42;10.57;;;5.63;;
72201;SDS011;60105;54.956;73.412;2023-02-27T22:05:48;11.75;;;5.55;;
72201;SDS011;60105;54.956;73.412;2023-02-27T22:08:53;10.85;;;5.85;;
72201;SDS011;60105;54.956;73.412;2023-02-27T22:11:55;8.27;;;4.70;;
72201;SDS011;60105;54.956;73.412;2023-02-27T22:14:57;7.03;;;4.67;;
72201;SDS011;60105;54.956;73.412;2023-02-27T22:17:58;10.13;;;5.32;;
72201;SDS011;60105;54.956;73.412;2023-02-27T22:21:00;8.73;;;5.22;;
72201;SDS011;60105;54.956;73.412;2023-02-27T22:24:09;10.48;;;5.13;;
72201;SDS011;60105;54.956;73.412;2023-02-27T22:27:11;10.98;;;5.38;;
72201;SDS011;60105;54.956;73.412;2023-02-27T22:30:19;8.75;;;4.82;;
72201;SDS011;60105;54.956;73.412;2023-02-27T22:33:30;7.90;;;4.82;;
72201;SDS011;60105;54.956;73.412;2023-02-27T22:36:32;8.53;;;4.53;;